sensor_id;sensor_type;location;lat;lon;timestamp;pressure;altitude;pressure_sealevel;temperature;humidity
57572;BME280;44459;43.522;24.470;2022-10-16T00:01:23;101060.97;;;7.02;87.02
57572;BME280;44459;43.522;24.470;2022-10-16T00:03:49;101062.56;;;6.97;86.79
57572;BME280;44459;43.522;24.470;2022-10-16T00:06:17;101065.22;;;6.99;86.05
57572;BME280;44459;43.522;24.470;2022-10-16T00:08:43;101065.06;;;6.94;85.83
57572;BME280;44459;43.522;24.470;2022-10-16T00:13:44;101070.75;;;6.81;86.90
57572;BME280;44459;43.522;24.470;2022-10-16T00:16:10;101069.81;;;6.79;87.19
57572;BME280;44459;43.522;24.470;2022-10-16T00:18:36;101061.78;;;6.75;87.71
57572;BME280;44459;43.522;24.470;2022-10-16T00:21:08;101066.22;;;6.77;88.36
57572;BME280;44459;43.522;24.470;2022-10-16T00:23:35;101065.38;;;6.78;88.63
57572;BME280;44459;43.522;24.470;2022-10-16T00:26:03;101062.75;;;6.78;88.85
57572;BME280;44459;43.522;24.470;2022-10-16T00:28:28;101066.22;;;6.77;88.95
57572;BME280;44459;43.522;24.470;2022-10-16T00:30:54;101064.41;;;6.75;88.93
57572;BME280;44459;43.522;24.470;2022-10-16T00:33:20;101062.56;;;6.72;88.71
57572;BME280;44459;43.522;24.470;2022-10-16T00:35:46;101069.63;;;6.75;87.97
57572;BME280;44459;43.522;24.470;2022-10-16T00:38:11;101064.22;;;6.70;88.03
57572;BME280;44459;43.522;24.470;2022-10-16T00:40:37;101067.81;;;6.72;88.42
57572;BME280;44459;43.522;24.470;2022-10-16T00:43:04;101069.38;;;6.67;88.09
57572;BME280;44459;43.522;24.470;2022-10-16T00:45:30;101071.88;;;6.64;87.49
57572;BME280;44459;43.522;24.470;2022-10-16T00:47:56;101077.03;;;6.61;86.75
57572;BME280;44459;43.522;24.470;2022-10-16T00:52:50;101077.75;;;6.57;86.67
57572;BME280;44459;43.522;24.470;2022-10-16T00:55:17;101087.25;;;6.53;86.78
57572;BME280;44459;43.522;24.470;2022-10-16T00:57:43;101078.25;;;6.47;87.32
57572;BME280;44459;43.522;24.470;2022-10-16T01:00:13;101073.03;;;6.47;87.49
57572;BME280;44459;43.522;24.470;2022-10-16T01:02:39;101073.00;;;6.45;87.65
57572;BME280;44459;43.522;24.470;2022-10-16T01:05:05;101066.84;;;6.45;88.19
57572;BME280;44459;43.522;24.470;2022-10-16T01:13:03;101077.97;;;6.39;88.81
57572;BME280;44459;43.522;24.470;2022-10-16T01:15:34;101071.63;;;6.33;88.96
57572;BME280;44459;43.522;24.470;2022-10-16T01:20:36;101086.31;;;6.28;90.29
57572;BME280;44459;43.522;24.470;2022-10-16T01:23:20;101080.09;;;6.26;89.94
57572;BME280;44459;43.522;24.470;2022-10-16T01:31:04;101084.13;;;6.16;90.37
57572;BME280;44459;43.522;24.470;2022-10-16T01:33:37;101079.06;;;6.21;90.18
57572;BME280;44459;43.522;24.470;2022-10-16T01:36:18;101080.81;;;6.22;90.32
57572;BME280;44459;43.522;24.470;2022-10-16T01:38:49;101081.63;;;6.19;90.07
57572;BME280;44459;43.522;24.470;2022-10-16T01:41:19;101091.06;;;6.14;89.48
57572;BME280;44459;43.522;24.470;2022-10-16T01:43:50;101088.13;;;6.06;88.94
57572;BME280;44459;43.522;24.470;2022-10-16T01:46:20;101097.72;;;6.06;89.11
57572;BME280;44459;43.522;24.470;2022-10-16T01:48:48;101099.38;;;6.04;89.11
57572;BME280;44459;43.522;24.470;2022-10-16T01:51:16;101090.25;;;5.93;89.30
57572;BME280;44459;43.522;24.470;2022-10-16T01:53:47;101097.19;;;5.92;89.34
57572;BME280;44459;43.522;24.470;2022-10-16T01:56:15;101099.75;;;5.91;89.32
57572;BME280;44459;43.522;24.470;2022-10-16T01:58:58;101092.59;;;5.87;89.13
57572;BME280;44459;43.522;24.470;2022-10-16T02:01:30;101099.63;;;5.88;89.23
57572;BME280;44459;43.522;24.470;2022-10-16T02:03:59;101103.72;;;5.81;88.64
57572;BME280;44459;43.522;24.470;2022-10-16T02:06:26;101096.63;;;5.79;88.92
57572;BME280;44459;43.522;24.470;2022-10-16T02:08:53;101106.94;;;5.74;88.79
57572;BME280;44459;43.522;24.470;2022-10-16T02:11:18;101097.13;;;5.69;89.27
57572;BME280;44459;43.522;24.470;2022-10-16T02:13:54;101098.72;;;5.65;89.54
57572;BME280;44459;43.522;24.470;2022-10-16T02:16:33;101112.06;;;5.71;89.65
57572;BME280;44459;43.522;24.470;2022-10-16T02:18:59;101118.88;;;5.68;89.57
57572;BME280;44459;43.522;24.470;2022-10-16T02:29:38;101110.72;;;5.60;90.23
57572;BME280;44459;43.522;24.470;2022-10-16T02:32:07;101127.44;;;5.64;90.60
57572;BME280;44459;43.522;24.470;2022-10-16T02:34:35;101124.00;;;5.65;90.32
57572;BME280;44459;43.522;24.470;2022-10-16T02:37:04;101123.69;;;5.57;90.44
57572;BME280;44459;43.522;24.470;2022-10-16T02:39:30;101126.31;;;5.57;90.40
57572;BME280;44459;43.522;24.470;2022-10-16T02:41:56;101135.91;;;5.56;90.21
57572;BME280;44459;43.522;24.470;2022-10-16T02:44:22;101131.31;;;5.51;90.11
57572;BME280;44459;43.522;24.470;2022-10-16T02:46:47;101128.69;;;5.51;89.96
57572;BME280;44459;43.522;24.470;2022-10-16T02:49:12;101129.53;;;5.50;89.89
57572;BME280;44459;43.522;24.470;2022-10-16T02:51:38;101129.41;;;5.47;90.00
57572;BME280;44459;43.522;24.470;2022-10-16T02:54:04;101129.41;;;5.47;89.88
57572;BME280;44459;43.522;24.470;2022-10-16T02:56:29;101137.31;;;5.48;90.00
57572;BME280;44459;43.522;24.470;2022-10-16T02:58:56;101140.69;;;5.46;89.44
57572;BME280;44459;43.522;24.470;2022-10-16T03:01:22;101133.53;;;5.42;89.33
57572;BME280;44459;43.522;24.470;2022-10-16T03:03:47;101133.38;;;5.37;89.29
57572;BME280;44459;43.522;24.470;2022-10-16T03:06:13;101129.66;;;5.32;89.18
57572;BME280;44459;43.522;24.470;2022-10-16T03:08:38;101132.34;;;5.34;89.96
57572;BME280;44459;43.522;24.470;2022-10-16T03:11:04;101131.34;;;5.30;89.64
57572;BME280;44459;43.522;24.470;2022-10-16T03:13:29;101139.22;;;5.32;90.74
57572;BME280;44459;43.522;24.470;2022-10-16T03:15:55;101133.09;;;5.31;91.02
57572;BME280;44459;43.522;24.470;2022-10-16T03:18:20;101140.13;;;5.32;91.08
57572;BME280;44459;43.522;24.470;2022-10-16T03:20:45;101142.69;;;5.31;91.39
57572;BME280;44459;43.522;24.470;2022-10-16T03:23:11;101149.69;;;5.32;91.87
57572;BME280;44459;43.522;24.470;2022-10-16T03:25:37;101160.13;;;5.30;91.57
57572;BME280;44459;43.522;24.470;2022-10-16T03:28:02;101153.09;;;5.29;91.55
57572;BME280;44459;43.522;24.470;2022-10-16T03:30:28;101161.72;;;5.27;91.14
57572;BME280;44459;43.522;24.470;2022-10-16T03:32:54;101162.63;;;5.27;91.71
57572;BME280;44459;43.522;24.470;2022-10-16T03:35:20;101159.81;;;5.23;91.41
57572;BME280;44459;43.522;24.470;2022-10-16T03:37:46;101160.69;;;5.23;90.94
57572;BME280;44459;43.522;24.470;2022-10-16T03:40:11;101153.53;;;5.19;90.93
57572;BME280;44459;43.522;24.470;2022-10-16T03:42:37;101154.31;;;5.17;90.11
57572;BME280;44459;43.522;24.470;2022-10-16T03:45:03;101162.03;;;5.14;89.81
57572;BME280;44459;43.522;24.470;2022-10-16T03:47:29;101165.22;;;5.06;88.66
57572;BME280;44459;43.522;24.470;2022-10-16T03:49:54;101168.41;;;4.99;88.77
57572;BME280;44459;43.522;24.470;2022-10-16T03:52:20;101168.00;;;4.90;89.16
57572;BME280;44459;43.522;24.470;2022-10-16T03:54:45;101172.31;;;4.90;89.23
57572;BME280;44459;43.522;24.470;2022-10-16T03:57:11;101170.34;;;4.84;89.66
57572;BME280;44459;43.522;24.470;2022-10-16T03:59:36;101176.59;;;4.88;90.00
57572;BME280;44459;43.522;24.470;2022-10-16T04:02:01;101175.56;;;4.84;90.09
57572;BME280;44459;43.522;24.470;2022-10-16T04:04:27;101177.38;;;4.85;90.60
57572;BME280;44459;43.522;24.470;2022-10-16T04:06:53;101174.63;;;4.82;90.65
57572;BME280;44459;43.522;24.470;2022-10-16T04:09:18;101171.94;;;4.81;90.82
57572;BME280;44459;43.522;24.470;2022-10-16T04:11:44;101178.88;;;4.80;90.73
57572;BME280;44459;43.522;24.470;2022-10-16T04:14:09;101180.69;;;4.81;91.07
57572;BME280;44459;43.522;24.470;2022-10-16T04:16:34;101181.50;;;4.80;91.02
57572;BME280;44459;43.522;24.470;2022-10-16T04:19:00;101182.47;;;4.82;90.85
57572;BME280;44459;43.522;24.470;2022-10-16T04:21:25;101173.66;;;4.80;90.59
57572;BME280;44459;43.522;24.470;2022-10-16T04:23:51;101179.84;;;4.82;90.02
57572;BME280;44459;43.522;24.470;2022-10-16T04:26:16;101174.28;;;4.75;90.44
57572;BME280;44459;43.522;24.470;2022-10-16T04:28:42;101174.34;;;4.76;90.45
57572;BME280;44459;43.522;24.470;2022-10-16T04:31:08;101180.47;;;4.77;90.41
57572;BME280;44459;43.522;24.470;2022-10-16T04:33:33;101191.81;;;4.77;90.39
57572;BME280;44459;43.522;24.470;2022-10-16T04:36:01;101179.44;;;4.73;90.12
57572;BME280;44459;43.522;24.470;2022-10-16T04:38:26;101182.94;;;4.74;90.17
57572;BME280;44459;43.522;24.470;2022-10-16T04:40:52;101188.09;;;4.72;90.17
57572;BME280;44459;43.522;24.470;2022-10-16T04:43:18;101190.88;;;4.75;90.06
57572;BME280;44459;43.522;24.470;2022-10-16T04:45:44;101194.16;;;4.71;90.28
57572;BME280;44459;43.522;24.470;2022-10-16T04:48:09;101188.94;;;4.71;90.30
57572;BME280;44459;43.522;24.470;2022-10-16T04:50:35;101187.16;;;4.70;90.22
57572;BME280;44459;43.522;24.470;2022-10-16T04:53:00;101194.22;;;4.73;90.09
57572;BME280;44459;43.522;24.470;2022-10-16T04:55:26;101195.81;;;4.69;nan
57572;BME280;44459;43.522;24.470;2022-10-16T04:57:51;101199.53;;;4.74;90.74
57572;BME280;44459;43.522;24.470;2022-10-16T05:00:17;101199.53;;;4.74;91.06
57572;BME280;44459;43.522;24.470;2022-10-16T05:02:43;101205.84;;;4.79;90.70
57572;BME280;44459;43.522;24.470;2022-10-16T05:05:08;101199.81;;;4.80;90.95
57572;BME280;44459;43.522;24.470;2022-10-16T05:07:34;101201.72;;;4.84;91.33
57572;BME280;44459;43.522;24.470;2022-10-16T05:09:59;101206.41;;;4.91;91.66
57572;BME280;44459;43.522;24.470;2022-10-16T05:12:25;101204.75;;;4.93;91.50
57572;BME280;44459;43.522;24.470;2022-10-16T05:14:50;101226.00;;;5.01;92.02
57572;BME280;44459;43.522;24.470;2022-10-16T05:17:16;101223.59;;;5.05;91.87
57572;BME280;44459;43.522;24.470;2022-10-16T05:19:41;101222.84;;;5.08;92.16
57572;BME280;44459;43.522;24.470;2022-10-16T05:22:07;101226.69;;;5.16;92.36
57572;BME280;44459;43.522;24.470;2022-10-16T05:24:32;101220.69;;;5.19;93.56
57572;BME280;44459;43.522;24.470;2022-10-16T05:26:58;101235.00;;;5.27;94.10
57572;BME280;44459;43.522;24.470;2022-10-16T05:29:24;101240.63;;;5.36;95.18
57572;BME280;44459;43.522;24.470;2022-10-16T05:31:51;101240.06;;;5.43;95.10
57572;BME280;44459;43.522;24.470;2022-10-16T05:34:17;101242.94;;;5.49;96.01
57572;BME280;44459;43.522;24.470;2022-10-16T05:36:42;101248.47;;;5.55;96.83
57572;BME280;44459;43.522;24.470;2022-10-16T05:39:10;101251.25;;;5.59;96.63
57572;BME280;44459;43.522;24.470;2022-10-16T05:41:36;101251.56;;;5.67;97.19
57572;BME280;44459;43.522;24.470;2022-10-16T05:44:04;101253.75;;;5.77;96.71
57572;BME280;44459;43.522;24.470;2022-10-16T05:46:31;101249.72;;;5.85;96.62
57572;BME280;44459;43.522;24.470;2022-10-16T05:48:56;101248.28;;;5.92;96.02
57572;BME280;44459;43.522;24.470;2022-10-16T05:51:22;101262.75;;;6.04;96.60
57572;BME280;44459;43.522;24.470;2022-10-16T05:53:47;101257.91;;;6.14;96.45
57572;BME280;44459;43.522;24.470;2022-10-16T05:56:13;101268.16;;;6.30;96.13
57572;BME280;44459;43.522;24.470;2022-10-16T05:58:40;101265.06;;;6.40;96.37
57572;BME280;44459;43.522;24.470;2022-10-16T06:01:10;101270.06;;;6.56;96.26
57572;BME280;44459;43.522;24.470;2022-10-16T06:03:36;101274.91;;;6.68;96.04
57572;BME280;44459;43.522;24.470;2022-10-16T06:06:15;101274.69;;;6.85;95.44
57572;BME280;44459;43.522;24.470;2022-10-16T06:08:42;101284.78;;;6.97;94.88
57572;BME280;44459;43.522;24.470;2022-10-16T06:11:11;101282.66;;;7.11;94.54
57572;BME280;44459;43.522;24.470;2022-10-16T06:13:36;101285.97;;;7.29;94.31
57572;BME280;44459;43.522;24.470;2022-10-16T06:16:03;101272.34;;;7.40;94.00
57572;BME280;44459;43.522;24.470;2022-10-16T06:18:29;101274.81;;;7.61;93.73
57572;BME280;44459;43.522;24.470;2022-10-16T06:20:56;101275.53;;;7.81;93.45
57572;BME280;44459;43.522;24.470;2022-10-16T06:23:22;101277.38;;;8.10;93.05
57572;BME280;44459;43.522;24.470;2022-10-16T06:25:47;101281.44;;;8.82;90.16
57572;BME280;44459;43.522;24.470;2022-10-16T06:28:16;101279.84;;;9.83;86.21
57572;BME280;44459;43.522;24.470;2022-10-16T06:30:42;101283.41;;;10.94;82.65
57572;BME280;44459;43.522;24.470;2022-10-16T06:33:10;101291.94;;;12.14;77.12
57572;BME280;44459;43.522;24.470;2022-10-16T06:35:35;101290.06;;;13.27;72.49
57572;BME280;44459;43.522;24.470;2022-10-16T06:38:01;101291.91;;;14.22;67.94
57572;BME280;44459;43.522;24.470;2022-10-16T06:40:26;101292.47;;;15.00;64.43
57572;BME280;44459;43.522;24.470;2022-10-16T06:42:54;101298.09;;;15.73;60.48
57572;BME280;44459;43.522;24.470;2022-10-16T06:45:20;101292.81;;;16.37;58.50
57572;BME280;44459;43.522;24.470;2022-10-16T06:47:45;101298.03;;;17.05;56.44
57572;BME280;44459;43.522;24.470;2022-10-16T06:50:11;101296.09;;;17.46;54.25
57572;BME280;44459;43.522;24.470;2022-10-16T06:52:36;101302.84;;;18.09;52.08
57572;BME280;44459;43.522;24.470;2022-10-16T06:55:02;101307.81;;;18.59;50.47
57572;BME280;44459;43.522;24.470;2022-10-16T06:57:28;101308.38;;;18.89;49.35
57572;BME280;44459;43.522;24.470;2022-10-16T06:59:53;101309.56;;;19.43;48.59
57572;BME280;44459;43.522;24.470;2022-10-16T07:02:19;101317.59;;;19.43;46.13
57572;BME280;44459;43.522;24.470;2022-10-16T07:04:44;101307.16;;;19.87;46.00
57572;BME280;44459;43.522;24.470;2022-10-16T07:07:10;101317.13;;;20.37;45.48
57572;BME280;44459;43.522;24.470;2022-10-16T07:09:35;101310.72;;;20.95;44.84
57572;BME280;44459;43.522;24.470;2022-10-16T07:12:01;101315.72;;;21.57;41.43
57572;BME280;44459;43.522;24.470;2022-10-16T07:14:26;101314.97;;;21.51;41.83
57572;BME280;44459;43.522;24.470;2022-10-16T07:16:52;101316.78;;;21.90;41.97
57572;BME280;44459;43.522;24.470;2022-10-16T07:19:18;101320.69;;;22.51;40.77
57572;BME280;44459;43.522;24.470;2022-10-16T07:21:44;101312.00;;;22.75;39.92
57572;BME280;44459;43.522;24.470;2022-10-16T07:24:16;101322.56;;;23.15;39.42
57572;BME280;44459;43.522;24.470;2022-10-16T07:26:43;101320.31;;;23.63;38.69
57572;BME280;44459;43.522;24.470;2022-10-16T07:29:18;101321.59;;;24.07;37.03
57572;BME280;44459;43.522;24.470;2022-10-16T07:31:45;101326.25;;;24.31;35.92
57572;BME280;44459;43.522;24.470;2022-10-16T07:34:12;101321.53;;;24.64;36.33
57572;BME280;44459;43.522;24.470;2022-10-16T07:36:39;101311.00;;;25.08;35.32
57572;BME280;44459;43.522;24.470;2022-10-16T07:39:04;101312.75;;;25.33;35.13
57572;BME280;44459;43.522;24.470;2022-10-16T07:41:30;101303.09;;;25.26;33.74
57572;BME280;44459;43.522;24.470;2022-10-16T07:43:58;101302.44;;;25.20;33.90
57572;BME280;44459;43.522;24.470;2022-10-16T07:46:25;101307.47;;;25.06;35.04
57572;BME280;44459;43.522;24.470;2022-10-16T07:48:51;101310.84;;;25.60;33.69
57572;BME280;44459;43.522;24.470;2022-10-16T07:51:18;101310.56;;;25.20;33.05
57572;BME280;44459;43.522;24.470;2022-10-16T07:53:45;101316.31;;;24.58;34.81
57572;BME280;44459;43.522;24.470;2022-10-16T07:56:11;101317.84;;;23.54;36.00
57572;BME280;44459;43.522;24.470;2022-10-16T07:58:37;101325.63;;;23.34;36.03
57572;BME280;44459;43.522;24.470;2022-10-16T08:01:04;101323.75;;;23.05;36.74
57572;BME280;44459;43.522;24.470;2022-10-16T08:03:30;101320.69;;;24.08;35.68
57572;BME280;44459;43.522;24.470;2022-10-16T08:05:57;101320.75;;;23.77;36.06
57572;BME280;44459;43.522;24.470;2022-10-16T08:08:23;101324.94;;;23.26;36.36
57572;BME280;44459;43.522;24.470;2022-10-16T08:10:48;101329.81;;;23.45;36.79
57572;BME280;44459;43.522;24.470;2022-10-16T08:13:15;101324.38;;;23.76;36.03
57572;BME280;44459;43.522;24.470;2022-10-16T08:15:41;101330.91;;;23.06;36.92
57572;BME280;44459;43.522;24.470;2022-10-16T08:18:07;101334.84;;;20.47;41.48
57572;BME280;44459;43.522;24.470;2022-10-16T08:20:34;101335.00;;;19.02;45.18
57572;BME280;44459;43.522;24.470;2022-10-16T08:23:00;101338.22;;;18.45;48.14
57572;BME280;44459;43.522;24.470;2022-10-16T08:25:26;101342.22;;;17.83;48.65
57572;BME280;44459;43.522;24.470;2022-10-16T08:27:51;101338.94;;;17.10;51.04
57572;BME280;44459;43.522;24.470;2022-10-16T08:30:18;101347.00;;;16.54;53.22
57572;BME280;44459;43.522;24.470;2022-10-16T08:32:44;101341.66;;;15.99;55.03
57572;BME280;44459;43.522;24.470;2022-10-16T08:35:11;101340.72;;;15.81;56.52
57572;BME280;44459;43.522;24.470;2022-10-16T08:37:37;101337.81;;;15.31;58.21
57572;BME280;44459;43.522;24.470;2022-10-16T08:40:05;101338.72;;;15.30;58.31
57572;BME280;44459;43.522;24.470;2022-10-16T08:42:51;101337.78;;;15.19;59.33
57572;BME280;44459;43.522;24.470;2022-10-16T08:45:31;101340.47;;;15.31;58.77
57572;BME280;44459;43.522;24.470;2022-10-16T08:50:39;101339.72;;;15.53;57.81
57572;BME280;44459;43.522;24.470;2022-10-16T08:53:05;101351.25;;;15.55;57.18
57572;BME280;44459;43.522;24.470;2022-10-16T08:55:41;101346.84;;;15.57;57.60
57572;BME280;44459;43.522;24.470;2022-10-16T08:58:13;101349.50;;;15.54;56.76
57572;BME280;44459;43.522;24.470;2022-10-16T09:00:39;101346.84;;;15.51;57.14
57572;BME280;44459;43.522;24.470;2022-10-16T09:03:21;101349.44;;;15.46;57.40
57572;BME280;44459;43.522;24.470;2022-10-16T09:11:14;101356.53;;;15.46;59.41
57572;BME280;44459;43.522;24.470;2022-10-16T09:16:45;101343.41;;;15.93;56.90
57572;BME280;44459;43.522;24.470;2022-10-16T09:19:30;101346.06;;;15.97;56.63
57572;BME280;44459;43.522;24.470;2022-10-16T09:22:00;101346.09;;;16.06;56.21
57572;BME280;44459;43.522;24.470;2022-10-16T09:24:27;101335.44;;;16.14;54.88
57572;BME280;44459;43.522;24.470;2022-10-16T09:26:53;101343.41;;;16.14;54.96
57572;BME280;44459;43.522;24.470;2022-10-16T09:29:20;101340.75;;;16.25;54.73
57572;BME280;44459;43.522;24.470;2022-10-16T09:31:47;101333.69;;;16.21;54.58
57572;BME280;44459;43.522;24.470;2022-10-16T09:34:28;101341.63;;;16.04;54.95
57572;BME280;44459;43.522;24.470;2022-10-16T09:36:56;101328.31;;;16.02;54.84
57572;BME280;44459;43.522;24.470;2022-10-16T09:39:22;101323.03;;;16.27;54.93
57572;BME280;44459;43.522;24.470;2022-10-16T09:41:48;101331.88;;;16.53;53.44
57572;BME280;44459;43.522;24.470;2022-10-16T09:46:44;101325.69;;;16.72;51.21
57572;BME280;44459;43.522;24.470;2022-10-16T09:49:25;101322.09;;;16.81;50.19
57572;BME280;44459;43.522;24.470;2022-10-16T09:52:03;101324.75;;;16.84;49.87
57572;BME280;44459;43.522;24.470;2022-10-16T09:54:29;101322.09;;;16.85;48.75
57572;BME280;44459;43.522;24.470;2022-10-16T09:57:04;101331.88;;;16.95;49.28
57572;BME280;44459;43.522;24.470;2022-10-16T09:59:31;101320.31;;;16.96;48.31
57572;BME280;44459;43.522;24.470;2022-10-16T10:01:56;101315.84;;;16.95;50.59
57572;BME280;44459;43.522;24.470;2022-10-16T10:04:38;101318.53;;;17.00;50.59
57572;BME280;44459;43.522;24.470;2022-10-16T10:07:05;101316.72;;;17.06;49.82
57572;BME280;44459;43.522;24.470;2022-10-16T10:09:38;101308.69;;;17.16;49.58
57572;BME280;44459;43.522;24.470;2022-10-16T10:12:06;101317.53;;;17.27;50.53
57572;BME280;44459;43.522;24.470;2022-10-16T10:14:47;101307.72;;;17.29;49.44
57572;BME280;44459;43.522;24.470;2022-10-16T10:17:20;101312.22;;;17.24;50.30
57572;BME280;44459;43.522;24.470;2022-10-16T10:20:00;101296.13;;;17.36;50.09
57572;BME280;44459;43.522;24.470;2022-10-16T10:31:47;101291.72;;;17.29;48.04
57572;BME280;44459;43.522;24.470;2022-10-16T10:34:00;101289.00;;;17.36;49.29
57572;BME280;44459;43.522;24.470;2022-10-16T10:36:35;101287.16;;;17.55;49.72
57572;BME280;44459;43.522;24.470;2022-10-16T10:39:13;101288.88;;;17.68;46.81
57572;BME280;44459;43.522;24.470;2022-10-16T10:44:55;101288.06;;;17.58;46.77
57572;BME280;44459;43.522;24.470;2022-10-16T10:50:20;101277.38;;;17.49;46.58
57572;BME280;44459;43.522;24.470;2022-10-16T10:55:42;101279.09;;;17.69;47.21
57572;BME280;44459;43.522;24.470;2022-10-16T11:06:13;101277.25;;;17.80;45.05
57572;BME280;44459;43.522;24.470;2022-10-16T11:08:48;101270.16;;;17.76;45.29
57572;BME280;44459;43.522;24.470;2022-10-16T11:11:24;101269.28;;;17.72;45.86
57572;BME280;44459;43.522;24.470;2022-10-16T11:13:57;101270.16;;;17.76;45.08
57572;BME280;44459;43.522;24.470;2022-10-16T11:16:39;101255.03;;;17.70;45.73
57572;BME280;44459;43.522;24.470;2022-10-16T11:19:13;101261.22;;;17.74;46.61
57572;BME280;44459;43.522;24.470;2022-10-16T11:21:50;101260.41;;;17.64;45.41
57572;BME280;44459;43.522;24.470;2022-10-16T11:24:33;101269.22;;;17.78;45.60
57572;BME280;44459;43.522;24.470;2022-10-16T11:27:04;101262.03;;;17.91;45.52
57572;BME280;44459;43.522;24.470;2022-10-16T11:29:35;101262.84;;;17.99;47.42
57572;BME280;44459;43.522;24.470;2022-10-16T11:32:19;101272.59;;;18.06;45.38
57572;BME280;44459;43.522;24.470;2022-10-16T11:34:57;101253.03;;;17.98;44.47
57572;BME280;44459;43.522;24.470;2022-10-16T11:37:27;101265.44;;;18.09;45.62
57572;BME280;44459;43.522;24.470;2022-10-16T11:42:46;101263.56;;;18.21;45.22
57572;BME280;44459;43.522;24.470;2022-10-16T11:45:39;101257.25;;;18.26;45.92
57572;BME280;44459;43.522;24.470;2022-10-16T11:50:57;101259.03;;;18.27;44.17
57572;BME280;44459;43.522;24.470;2022-10-16T11:56:00;101253.84;;;18.10;44.17
57572;BME280;44459;43.522;24.470;2022-10-16T11:58:27;101252.00;;;18.17;45.14
57572;BME280;44459;43.522;24.470;2022-10-16T12:01:01;101257.34;;;18.17;45.46
57572;BME280;44459;43.522;24.470;2022-10-16T12:03:47;101258.97;;;18.35;45.13
57572;BME280;44459;43.522;24.470;2022-10-16T12:09:03;101258.06;;;18.39;44.61
57572;BME280;44459;43.522;24.470;2022-10-16T12:16:58;101257.09;;;18.44;45.26
57572;BME280;44459;43.522;24.470;2022-10-16T12:19:27;101254.38;;;18.47;44.64
57572;BME280;44459;43.522;24.470;2022-10-16T12:21:56;101257.09;;;18.46;43.02
57572;BME280;44459;43.522;24.470;2022-10-16T12:27:00;101258.91;;;18.41;42.86
57572;BME280;44459;43.522;24.470;2022-10-16T12:29:31;101260.69;;;18.42;42.55
57572;BME280;44459;43.522;24.470;2022-10-16T12:31:57;101258.09;;;18.34;43.71
57572;BME280;44459;43.522;24.470;2022-10-16T12:34:27;101253.63;;;18.35;44.73
57572;BME280;44459;43.522;24.470;2022-10-16T12:36:54;101247.44;;;18.30;42.78
57572;BME280;44459;43.522;24.470;2022-10-16T12:39:22;101246.50;;;18.35;43.85
57572;BME280;44459;43.522;24.470;2022-10-16T12:42:00;101244.69;;;18.37;43.70
57572;BME280;44459;43.522;24.470;2022-10-16T12:44:32;101245.50;;;18.44;44.78
57572;BME280;44459;43.522;24.470;2022-10-16T12:46:58;101250.81;;;18.47;44.76
57572;BME280;44459;43.522;24.470;2022-10-16T12:49:31;101254.44;;;18.46;43.30
57572;BME280;44459;43.522;24.470;2022-10-16T12:51:57;101253.56;;;18.41;44.34
57572;BME280;44459;43.522;24.470;2022-10-16T12:54:37;101250.81;;;18.50;43.68
57572;BME280;44459;43.522;24.470;2022-10-16T13:24:15;101256.31;;;18.33;42.45
57572;BME280;44459;43.522;24.470;2022-10-16T13:29:53;101266.22;;;18.25;42.53
57572;BME280;44459;43.522;24.470;2022-10-16T13:32:21;101267.00;;;18.35;43.96
57572;BME280;44459;43.522;24.470;2022-10-16T13:34:48;101264.31;;;18.33;43.35
57572;BME280;44459;43.522;24.470;2022-10-16T13:37:18;101267.94;;;18.31;42.82
57572;BME280;44459;43.522;24.470;2022-10-16T13:39:44;101255.44;;;18.31;43.60
57572;BME280;44459;43.522;24.470;2022-10-16T13:42:24;101272.34;;;18.35;43.08
57572;BME280;44459;43.522;24.470;2022-10-16T13:44:53;101261.69;;;18.32;43.90
57572;BME280;44459;43.522;24.470;2022-10-16T13:47:22;101275.84;;;18.40;45.10
57572;BME280;44459;43.522;24.470;2022-10-16T13:49:59;101278.75;;;19.08;43.90
57572;BME280;44459;43.522;24.470;2022-10-16T13:52:25;101265.91;;;20.98;40.29
57572;BME280;44459;43.522;24.470;2022-10-16T13:54:51;101271.44;;;22.47;36.26
57572;BME280;44459;43.522;24.470;2022-10-16T13:57:17;101274.22;;;23.40;33.95
57572;BME280;44459;43.522;24.470;2022-10-16T13:59:43;101272.81;;;23.87;33.44
57572;BME280;44459;43.522;24.470;2022-10-16T14:02:31;101277.78;;;23.71;33.23
57572;BME280;44459;43.522;24.470;2022-10-16T14:05:02;101277.63;;;23.77;33.59
57572;BME280;44459;43.522;24.470;2022-10-16T14:07:34;101276.38;;;23.87;33.59
57572;BME280;44459;43.522;24.470;2022-10-16T14:10:19;101273.66;;;24.43;33.31
57572;BME280;44459;43.522;24.470;2022-10-16T14:15:21;101278.91;;;23.64;34.04
57572;BME280;44459;43.522;24.470;2022-10-16T14:17:49;101285.00;;;23.40;34.83
57572;BME280;44459;43.522;24.470;2022-10-16T14:20:16;101284.03;;;23.44;34.30
57572;BME280;44459;43.522;24.470;2022-10-16T14:22:42;101283.91;;;23.48;34.54
57572;BME280;44459;43.522;24.470;2022-10-16T14:25:23;101284.53;;;22.95;35.03
57572;BME280;44459;43.522;24.470;2022-10-16T14:30:55;101292.97;;;22.47;35.37
57572;BME280;44459;43.522;24.470;2022-10-16T14:33:24;101294.56;;;22.21;36.09
57572;BME280;44459;43.522;24.470;2022-10-16T14:36:12;101293.16;;;22.04;36.81
57572;BME280;44459;43.522;24.470;2022-10-16T14:38:42;101297.66;;;21.64;36.78
57572;BME280;44459;43.522;24.470;2022-10-16T14:41:13;101295.75;;;21.28;37.85
57572;BME280;44459;43.522;24.470;2022-10-16T14:43:42;101302.19;;;21.19;38.48
57572;BME280;44459;43.522;24.470;2022-10-16T14:46:20;101299.22;;;20.88;38.73
57572;BME280;44459;43.522;24.470;2022-10-16T14:48:49;101304.91;;;20.70;39.46
57572;BME280;44459;43.522;24.470;2022-10-16T14:51:17;101304.56;;;20.39;39.39
57572;BME280;44459;43.522;24.470;2022-10-16T14:53:42;101304.09;;;20.67;39.96